sensor_id;sensor_type;location;lat;lon;timestamp;P1;durP1;ratioP1;P2;durP2;ratioP2
9970;SDS011;5026;51.494;11.974;2024-03-23T00:55:43;9.30;;;5.20;;
9970;SDS011;5026;51.494;11.974;2024-03-23T00:58:11;11.57;;;4.70;;
9970;SDS011;5026;51.494;11.974;2024-03-23T01:00:36;10.20;;;5.07;;
9970;SDS011;5026;51.494;11.974;2024-03-23T01:03:04;12.07;;;5.53;;
9970;SDS011;5026;51.494;11.974;2024-03-23T01:05:30;13.13;;;5.60;;
9970;SDS011;5026;51.494;11.974;2024-03-23T01:07:57;10.77;;;5.90;;
9970;SDS011;5026;51.494;11.974;2024-03-23T01:10:26;12.67;;;5.13;;
9970;SDS011;5026;51.494;11.974;2024-03-23T01:12:53;10.60;;;5.80;;
9970;SDS011;5026;51.494;11.974;2024-03-23T01:15:19;10.03;;;6.10;;
9970;SDS011;5026;51.494;11.974;2024-03-23T01:17:47;8.93;;;5.37;;
9970;SDS011;5026;51.494;11.974;2024-03-23T01:20:13;10.00;;;5.97;;
9970;SDS011;5026;51.494;11.974;2024-03-23T01:22:41;11.90;;;6.00;;
9970;SDS011;5026;51.494;11.974;2024-03-23T01:25:07;12.13;;;5.53;;
9970;SDS011;5026;51.494;11.974;2024-03-23T01:27:35;13.57;;;5.50;;
9970;SDS011;5026;51.494;11.974;2024-03-23T01:30:01;9.97;;;6.37;;
9970;SDS011;5026;51.494;11.974;2024-03-23T01:32:28;11.03;;;6.27;;
9970;SDS011;5026;51.494;11.974;2024-03-23T01:34:54;12.30;;;6.33;;
9970;SDS011;5026;51.494;11.974;2024-03-23T01:37:21;10.97;;;6.57;;
9970;SDS011;5026;51.494;11.974;2024-03-23T01:39:47;12.47;;;5.97;;
9970;SDS011;5026;51.494;11.974;2024-03-23T01:42:14;11.77;;;6.03;;
9970;SDS011;5026;51.494;11.974;2024-03-23T01:44:41;13.00;;;6.47;;
9970;SDS011;5026;51.494;11.974;2024-03-23T01:47:08;15.90;;;6.70;;
9970;SDS011;5026;51.494;11.974;2024-03-23T01:49:34;10.93;;;6.57;;
9970;SDS011;5026;51.494;11.974;2024-03-23T01:52:02;15.43;;;7.00;;
9970;SDS011;5026;51.494;11.974;2024-03-23T01:54:28;11.63;;;6.30;;
9970;SDS011;5026;51.494;11.974;2024-03-23T01:56:56;12.97;;;7.10;;
9970;SDS011;5026;51.494;11.974;2024-03-23T01:59:22;12.50;;;7.17;;
9970;SDS011;5026;51.494;11.974;2024-03-23T02:01:53;16.90;;;6.57;;
9970;SDS011;5026;51.494;11.974;2024-03-23T02:04:19;14.13;;;6.90;;
9970;SDS011;5026;51.494;11.974;2024-03-23T02:06:46;15.87;;;7.40;;
9970;SDS011;5026;51.494;11.974;2024-03-23T02:09:13;13.80;;;6.80;;
9970;SDS011;5026;51.494;11.974;2024-03-23T02:11:40;13.23;;;7.63;;
9970;SDS011;5026;51.494;11.974;2024-03-23T02:14:06;15.17;;;7.33;;
9970;SDS011;5026;51.494;11.974;2024-03-23T02:16:33;15.50;;;7.73;;
9970;SDS011;5026;51.494;11.974;2024-03-23T02:19:01;16.83;;;7.77;;
9970;SDS011;5026;51.494;11.974;2024-03-23T02:21:28;15.77;;;7.97;;
9970;SDS011;5026;51.494;11.974;2024-03-23T02:23:58;13.10;;;7.00;;
9970;SDS011;5026;51.494;11.974;2024-03-23T02:26:25;15.50;;;7.70;;
9970;SDS011;5026;51.494;11.974;2024-03-23T02:28:51;16.93;;;8.37;;
9970;SDS011;5026;51.494;11.974;2024-03-23T02:31:18;15.93;;;7.83;;
9970;SDS011;5026;51.494;11.974;2024-03-23T02:33:44;15.13;;;7.50;;
9970;SDS011;5026;51.494;11.974;2024-03-23T02:36:11;15.00;;;7.83;;
9970;SDS011;5026;51.494;11.974;2024-03-23T02:38:37;14.50;;;8.53;;
9970;SDS011;5026;51.494;11.974;2024-03-23T02:41:05;16.07;;;7.97;;
9970;SDS011;5026;51.494;11.974;2024-03-23T02:43:31;16.87;;;8.13;;
9970;SDS011;5026;51.494;11.974;2024-03-23T02:45:58;13.87;;;7.30;;
9970;SDS011;5026;51.494;11.974;2024-03-23T02:48:25;14.77;;;7.57;;
9970;SDS011;5026;51.494;11.974;2024-03-23T02:50:52;14.67;;;7.90;;
9970;SDS011;5026;51.494;11.974;2024-03-23T02:53:19;18.80;;;8.37;;
9970;SDS011;5026;51.494;11.974;2024-03-23T02:55:46;17.80;;;8.20;;
9970;SDS011;5026;51.494;11.974;2024-03-23T02:58:13;17.80;;;8.40;;
9970;SDS011;5026;51.494;11.974;2024-03-23T03:00:40;13.37;;;7.77;;
9970;SDS011;5026;51.494;11.974;2024-03-23T03:03:06;17.17;;;8.30;;
9970;SDS011;5026;51.494;11.974;2024-03-23T03:05:34;16.57;;;8.10;;
9970;SDS011;5026;51.494;11.974;2024-03-23T03:07:59;13.60;;;7.90;;
9970;SDS011;5026;51.494;11.974;2024-03-23T03:10:27;15.97;;;8.20;;
9970;SDS011;5026;51.494;11.974;2024-03-23T03:12:53;17.63;;;9.47;;
9970;SDS011;5026;51.494;11.974;2024-03-23T03:15:21;13.97;;;8.07;;
9970;SDS011;5026;51.494;11.974;2024-03-23T03:17:47;15.57;;;8.20;;
9970;SDS011;5026;51.494;11.974;2024-03-23T03:20:14;18.17;;;9.27;;
9970;SDS011;5026;51.494;11.974;2024-03-23T03:22:41;18.43;;;8.20;;
9970;SDS011;5026;51.494;11.974;2024-03-23T03:25:08;15.07;;;7.57;;
9970;SDS011;5026;51.494;11.974;2024-03-23T03:27:33;17.80;;;8.43;;
9970;SDS011;5026;51.494;11.974;2024-03-23T03:30:00;17.60;;;8.60;;
9970;SDS011;5026;51.494;11.974;2024-03-23T03:32:29;19.17;;;7.83;;
9970;SDS011;5026;51.494;11.974;2024-03-23T03:34:56;17.53;;;8.90;;
9970;SDS011;5026;51.494;11.974;2024-03-23T03:37:22;18.17;;;8.57;;
9970;SDS011;5026;51.494;11.974;2024-03-23T03:39:49;17.17;;;9.27;;
9970;SDS011;5026;51.494;11.974;2024-03-23T03:42:15;18.90;;;8.77;;
9970;SDS011;5026;51.494;11.974;2024-03-23T03:44:42;17.53;;;8.43;;
9970;SDS011;5026;51.494;11.974;2024-03-23T03:47:08;20.33;;;9.43;;
9970;SDS011;5026;51.494;11.974;2024-03-23T03:49:37;18.80;;;9.73;;
9970;SDS011;5026;51.494;11.974;2024-03-23T03:52:03;16.80;;;9.20;;
9970;SDS011;5026;51.494;11.974;2024-03-23T03:54:30;17.77;;;8.10;;
9970;SDS011;5026;51.494;11.974;2024-03-23T03:56:57;19.30;;;9.40;;
9970;SDS011;5026;51.494;11.974;2024-03-23T03:59:23;19.90;;;10.03;;
9970;SDS011;5026;51.494;11.974;2024-03-23T04:01:49;19.40;;;9.03;;
9970;SDS011;5026;51.494;11.974;2024-03-23T04:04:16;20.87;;;9.00;;
9970;SDS011;5026;51.494;11.974;2024-03-23T04:06:44;16.53;;;8.80;;
9970;SDS011;5026;51.494;11.974;2024-03-23T04:09:11;20.67;;;9.10;;
9970;SDS011;5026;51.494;11.974;2024-03-23T04:11:37;20.60;;;8.63;;
9970;SDS011;5026;51.494;11.974;2024-03-23T04:14:04;16.63;;;9.03;;
9970;SDS011;5026;51.494;11.974;2024-03-23T04:16:34;18.07;;;9.30;;
9970;SDS011;5026;51.494;11.974;2024-03-23T04:19:01;24.13;;;9.40;;
9970;SDS011;5026;51.494;11.974;2024-03-23T04:21:27;14.83;;;7.73;;
9970;SDS011;5026;51.494;11.974;2024-03-23T04:23:55;20.73;;;8.63;;
9970;SDS011;5026;51.494;11.974;2024-03-23T04:26:21;22.07;;;8.83;;
9970;SDS011;5026;51.494;11.974;2024-03-23T04:28:48;18.63;;;8.77;;
9970;SDS011;5026;51.494;11.974;2024-03-23T04:31:14;17.70;;;9.33;;
9970;SDS011;5026;51.494;11.974;2024-03-23T04:33:41;19.43;;;8.77;;
9970;SDS011;5026;51.494;11.974;2024-03-23T04:36:07;17.13;;;8.80;;
9970;SDS011;5026;51.494;11.974;2024-03-23T04:38:35;15.97;;;7.50;;
9970;SDS011;5026;51.494;11.974;2024-03-23T04:41:03;17.67;;;7.47;;
9970;SDS011;5026;51.494;11.974;2024-03-23T04:43:30;18.10;;;7.87;;
9970;SDS011;5026;51.494;11.974;2024-03-23T04:45:57;19.30;;;8.20;;
9970;SDS011;5026;51.494;11.974;2024-03-23T04:48:24;17.77;;;8.47;;
9970;SDS011;5026;51.494;11.974;2024-03-23T04:50:54;21.03;;;7.80;;
9970;SDS011;5026;51.494;11.974;2024-03-23T04:53:22;22.13;;;8.37;;
9970;SDS011;5026;51.494;11.974;2024-03-23T04:55:53;15.23;;;7.00;;
9970;SDS011;5026;51.494;11.974;2024-03-23T04:58:21;17.33;;;8.67;;
9970;SDS011;5026;51.494;11.974;2024-03-23T05:00:48;19.23;;;8.47;;
9970;SDS011;5026;51.494;11.974;2024-03-23T05:03:19;21.90;;;8.40;;
9970;SDS011;5026;51.494;11.974;2024-03-23T05:05:46;18.10;;;9.10;;
9970;SDS011;5026;51.494;11.974;2024-03-23T05:08:13;18.67;;;8.60;;
9970;SDS011;5026;51.494;11.974;2024-03-23T05:10:39;20.13;;;7.90;;
9970;SDS011;5026;51.494;11.974;2024-03-23T05:13:07;17.63;;;8.43;;
9970;SDS011;5026;51.494;11.974;2024-03-23T05:15:34;16.43;;;8.27;;
9970;SDS011;5026;51.494;11.974;2024-03-23T05:18:01;18.50;;;7.83;;
9970;SDS011;5026;51.494;11.974;2024-03-23T05:20:28;16.90;;;7.87;;
9970;SDS011;5026;51.494;11.974;2024-03-23T05:22:55;16.90;;;7.77;;
9970;SDS011;5026;51.494;11.974;2024-03-23T05:25:21;17.27;;;7.20;;
9970;SDS011;5026;51.494;11.974;2024-03-23T05:27:48;17.57;;;7.37;;
9970;SDS011;5026;51.494;11.974;2024-03-23T05:30:14;19.47;;;6.93;;
9970;SDS011;5026;51.494;11.974;2024-03-23T05:32:42;18.90;;;7.67;;
9970;SDS011;5026;51.494;11.974;2024-03-23T05:35:09;17.83;;;6.53;;
9970;SDS011;5026;51.494;11.974;2024-03-23T05:37:36;23.10;;;7.03;;
9970;SDS011;5026;51.494;11.974;2024-03-23T05:40:03;18.07;;;7.17;;
9970;SDS011;5026;51.494;11.974;2024-03-23T05:42:31;15.90;;;6.87;;
9970;SDS011;5026;51.494;11.974;2024-03-23T05:44:57;16.40;;;5.77;;
9970;SDS011;5026;51.494;11.974;2024-03-23T05:47:24;15.97;;;6.30;;
9970;SDS011;5026;51.494;11.974;2024-03-23T05:49:51;15.20;;;6.40;;
9970;SDS011;5026;51.494;11.974;2024-03-23T05:52:18;15.17;;;5.80;;
9970;SDS011;5026;51.494;11.974;2024-03-23T05:54:46;13.27;;;6.43;;
9970;SDS011;5026;51.494;11.974;2024-03-23T05:57:12;18.00;;;6.17;;
9970;SDS011;5026;51.494;11.974;2024-03-23T05:59:38;18.23;;;6.03;;
9970;SDS011;5026;51.494;11.974;2024-03-23T06:02:05;18.67;;;5.90;;
9970;SDS011;5026;51.494;11.974;2024-03-23T06:04:32;12.43;;;5.50;;
9970;SDS011;5026;51.494;11.974;2024-03-23T06:07:00;15.23;;;4.90;;
9970;SDS011;5026;51.494;11.974;2024-03-23T06:09:27;15.50;;;5.00;;
9970;SDS011;5026;51.494;11.974;2024-03-23T06:11:56;11.60;;;5.07;;
9970;SDS011;5026;51.494;11.974;2024-03-23T06:14:22;9.57;;;4.30;;
9970;SDS011;5026;51.494;11.974;2024-03-23T06:16:49;18.70;;;5.20;;
9970;SDS011;5026;51.494;11.974;2024-03-23T06:19:15;12.67;;;4.40;;
9970;SDS011;5026;51.494;11.974;2024-03-23T06:21:43;15.90;;;4.50;;
9970;SDS011;5026;51.494;11.974;2024-03-23T06:24:10;12.47;;;4.57;;
9970;SDS011;5026;51.494;11.974;2024-03-23T06:26:37;7.37;;;3.40;;
9970;SDS011;5026;51.494;11.974;2024-03-23T06:29:03;5.63;;;3.77;;
9970;SDS011;5026;51.494;11.974;2024-03-23T06:31:33;9.83;;;3.40;;
9970;SDS011;5026;51.494;11.974;2024-03-23T06:33:59;4.07;;;3.00;;
9970;SDS011;5026;51.494;11.974;2024-03-23T06:36:27;6.47;;;2.77;;
9970;SDS011;5026;51.494;11.974;2024-03-23T06:38:55;6.50;;;3.07;;
9970;SDS011;5026;51.494;11.974;2024-03-23T06:41:23;4.53;;;2.80;;
9970;SDS011;5026;51.494;11.974;2024-03-23T06:43:50;5.80;;;2.83;;
9970;SDS011;5026;51.494;11.974;2024-03-23T06:46:17;7.53;;;2.70;;
9970;SDS011;5026;51.494;11.974;2024-03-23T06:48:44;3.50;;;2.13;;
9970;SDS011;5026;51.494;11.974;2024-03-23T06:51:11;3.37;;;2.20;;
9970;SDS011;5026;51.494;11.974;2024-03-23T06:53:37;5.93;;;2.40;;
9970;SDS011;5026;51.494;11.974;2024-03-23T06:56:04;3.27;;;2.10;;
9970;SDS011;5026;51.494;11.974;2024-03-23T06:58:32;3.63;;;2.60;;
9970;SDS011;5026;51.494;11.974;2024-03-23T07:00:59;4.77;;;2.50;;
9970;SDS011;5026;51.494;11.974;2024-03-23T07:03:24;3.73;;;2.50;;
9970;SDS011;5026;51.494;11.974;2024-03-23T07:05:52;6.00;;;2.50;;
9970;SDS011;5026;51.494;11.974;2024-03-23T07:08:18;7.70;;;2.33;;
9970;SDS011;5026;51.494;11.974;2024-03-23T07:10:47;3.30;;;2.80;;
9970;SDS011;5026;51.494;11.974;2024-03-23T07:13:13;5.63;;;2.57;;
9970;SDS011;5026;51.494;11.974;2024-03-23T07:15:41;6.67;;;2.70;;
9970;SDS011;5026;51.494;11.974;2024-03-23T07:18:08;4.90;;;3.00;;
9970;SDS011;5026;51.494;11.974;2024-03-23T07:20:35;4.87;;;1.80;;
9970;SDS011;5026;51.494;11.974;2024-03-23T07:23:04;3.10;;;1.77;;
9970;SDS011;5026;51.494;11.974;2024-03-23T07:25:39;4.07;;;1.43;;
9970;SDS011;5026;51.494;11.974;2024-03-23T07:28:05;3.43;;;1.13;;
9970;SDS011;5026;51.494;11.974;2024-03-23T07:30:32;4.93;;;1.80;;
9970;SDS011;5026;51.494;11.974;2024-03-23T07:32:59;1.80;;;1.00;;
9970;SDS011;5026;51.494;11.974;2024-03-23T07:35:26;6.30;;;1.63;;
9970;SDS011;5026;51.494;11.974;2024-03-23T07:37:52;2.07;;;0.97;;
9970;SDS011;5026;51.494;11.974;2024-03-23T07:40:19;3.60;;;1.30;;
9970;SDS011;5026;51.494;11.974;2024-03-23T07:42:45;3.57;;;1.73;;
9970;SDS011;5026;51.494;11.974;2024-03-23T07:45:12;1.83;;;1.17;;
9970;SDS011;5026;51.494;11.974;2024-03-23T07:47:38;1.60;;;1.07;;
9970;SDS011;5026;51.494;11.974;2024-03-23T07:52:44;3.10;;;1.27;;
9970;SDS011;5026;51.494;11.974;2024-03-23T07:55:11;4.47;;;1.50;;
9970;SDS011;5026;51.494;11.974;2024-03-23T07:57:36;2.77;;;1.50;;
9970;SDS011;5026;51.494;11.974;2024-03-23T08:00:04;5.00;;;1.20;;
9970;SDS011;5026;51.494;11.974;2024-03-23T08:02:31;3.83;;;0.90;;
9970;SDS011;5026;51.494;11.974;2024-03-23T08:04:58;2.47;;;1.40;;
9970;SDS011;5026;51.494;11.974;2024-03-23T08:07:24;3.83;;;1.33;;
9970;SDS011;5026;51.494;11.974;2024-03-23T08:09:52;3.77;;;1.40;;
9970;SDS011;5026;51.494;11.974;2024-03-23T08:12:18;4.27;;;1.30;;
9970;SDS011;5026;51.494;11.974;2024-03-23T08:14:45;1.80;;;1.07;;
9970;SDS011;5026;51.494;11.974;2024-03-23T08:17:11;3.27;;;1.10;;
9970;SDS011;5026;51.494;11.974;2024-03-23T08:19:37;6.67;;;2.17;;
9970;SDS011;5026;51.494;11.974;2024-03-23T08:22:03;1.77;;;1.30;;
9970;SDS011;5026;51.494;11.974;2024-03-23T08:24:31;3.13;;;1.43;;
9970;SDS011;5026;51.494;11.974;2024-03-23T08:26:58;4.00;;;1.80;;
9970;SDS011;5026;51.494;11.974;2024-03-23T08:29:25;3.50;;;1.60;;
9970;SDS011;5026;51.494;11.974;2024-03-23T08:31:51;4.30;;;1.93;;
9970;SDS011;5026;51.494;11.974;2024-03-23T08:34:18;2.77;;;1.40;;
9970;SDS011;5026;51.494;11.974;2024-03-23T08:36:44;2.03;;;1.63;;
9970;SDS011;5026;51.494;11.974;2024-03-23T08:39:11;2.27;;;1.53;;
9970;SDS011;5026;51.494;11.974;2024-03-23T08:41:36;1.80;;;1.10;;
9970;SDS011;5026;51.494;11.974;2024-03-23T08:44:05;2.43;;;1.10;;
9970;SDS011;5026;51.494;11.974;2024-03-23T08:46:30;2.50;;;1.07;;
9970;SDS011;5026;51.494;11.974;2024-03-23T08:48:57;2.33;;;1.03;;
9970;SDS011;5026;51.494;11.974;2024-03-23T08:51:23;1.73;;;1.00;;
9970;SDS011;5026;51.494;11.974;2024-03-23T08:53:50;2.50;;;1.57;;
9970;SDS011;5026;51.494;11.974;2024-03-23T08:56:16;4.33;;;1.20;;
9970;SDS011;5026;51.494;11.974;2024-03-23T08:58:43;3.87;;;1.40;;
9970;SDS011;5026;51.494;11.974;2024-03-23T09:01:10;1.50;;;1.40;;
9970;SDS011;5026;51.494;11.974;2024-03-23T09:03:38;1.43;;;1.10;;
9970;SDS011;5026;51.494;11.974;2024-03-23T09:06:06;1.43;;;1.00;;
9970;SDS011;5026;51.494;11.974;2024-03-23T09:08:33;1.50;;;0.93;;
9970;SDS011;5026;51.494;11.974;2024-03-23T09:11:03;1.20;;;0.90;;
9970;SDS011;5026;51.494;11.974;2024-03-23T09:13:32;4.23;;;1.23;;
9970;SDS011;5026;51.494;11.974;2024-03-23T09:15:58;2.37;;;1.07;;
9970;SDS011;5026;51.494;11.974;2024-03-23T09:18:26;1.43;;;0.90;;
9970;SDS011;5026;51.494;11.974;2024-03-23T09:20:52;2.17;;;0.90;;
9970;SDS011;5026;51.494;11.974;2024-03-23T09:23:19;1.70;;;0.80;;
9970;SDS011;5026;51.494;11.974;2024-03-23T09:25:45;1.53;;;0.90;;
9970;SDS011;5026;51.494;11.974;2024-03-23T09:28:12;1.13;;;0.80;;
9970;SDS011;5026;51.494;11.974;2024-03-23T09:30:38;1.23;;;0.70;;
9970;SDS011;5026;51.494;11.974;2024-03-23T09:33:07;1.17;;;1.07;;
9970;SDS011;5026;51.494;11.974;2024-03-23T09:35:37;1.83;;;0.73;;
9970;SDS011;5026;51.494;11.974;2024-03-23T09:38:04;1.20;;;0.87;;
9970;SDS011;5026;51.494;11.974;2024-03-23T09:40:30;3.60;;;1.00;;
9970;SDS011;5026;51.494;11.974;2024-03-23T09:42:58;1.13;;;0.90;;
9970;SDS011;5026;51.494;11.974;2024-03-23T09:45:26;2.13;;;1.20;;
9970;SDS011;5026;51.494;11.974;2024-03-23T09:47:54;2.33;;;1.10;;
9970;SDS011;5026;51.494;11.974;2024-03-23T09:50:20;2.10;;;1.30;;
9970;SDS011;5026;51.494;11.974;2024-03-23T09:52:49;2.60;;;1.37;;
9970;SDS011;5026;51.494;11.974;2024-03-23T09:55:15;1.90;;;1.30;;
9970;SDS011;5026;51.494;11.974;2024-03-23T09:57:42;2.07;;;1.50;;
9970;SDS011;5026;51.494;11.974;2024-03-23T10:00:08;2.10;;;1.90;;
9970;SDS011;5026;51.494;11.974;2024-03-23T10:02:37;2.20;;;1.87;;
9970;SDS011;5026;51.494;11.974;2024-03-23T10:05:03;3.93;;;2.70;;
9970;SDS011;5026;51.494;11.974;2024-03-23T10:07:31;3.20;;;2.43;;
9970;SDS011;5026;51.494;11.974;2024-03-23T10:09:58;2.40;;;2.10;;
9970;SDS011;5026;51.494;11.974;2024-03-23T10:12:39;2.90;;;2.60;;
9970;SDS011;5026;51.494;11.974;2024-03-23T10:15:10;5.27;;;2.77;;
9970;SDS011;5026;51.494;11.974;2024-03-23T10:17:43;3.73;;;2.63;;
9970;SDS011;5026;51.494;11.974;2024-03-23T10:20:10;2.83;;;2.63;;
9970;SDS011;5026;51.494;11.974;2024-03-23T10:22:37;2.80;;;2.60;;
9970;SDS011;5026;51.494;11.974;2024-03-23T10:25:08;5.50;;;2.40;;
9970;SDS011;5026;51.494;11.974;2024-03-23T10:27:35;2.93;;;2.43;;
9970;SDS011;5026;51.494;11.974;2024-03-23T10:30:10;3.17;;;1.93;;
9970;SDS011;5026;51.494;11.974;2024-03-23T10:32:40;1.63;;;1.30;;
9970;SDS011;5026;51.494;11.974;2024-03-23T10:35:16;2.20;;;1.33;;
9970;SDS011;5026;51.494;11.974;2024-03-23T10:37:45;3.17;;;1.50;;
9970;SDS011;5026;51.494;11.974;2024-03-23T10:40:13;2.30;;;1.33;;
9970;SDS011;5026;51.494;11.974;2024-03-23T10:42:40;4.73;;;1.70;;
9970;SDS011;5026;51.494;11.974;2024-03-23T10:45:08;4.10;;;1.40;;
9970;SDS011;5026;51.494;11.974;2024-03-23T10:47:35;8.77;;;1.97;;
9970;SDS011;5026;51.494;11.974;2024-03-23T10:50:02;5.13;;;1.10;;
9970;SDS011;5026;51.494;11.974;2024-03-23T10:52:30;2.87;;;1.30;;
9970;SDS011;5026;51.494;11.974;2024-03-23T10:54:56;3.07;;;1.67;;
9970;SDS011;5026;51.494;11.974;2024-03-23T10:57:26;3.70;;;1.93;;
9970;SDS011;5026;51.494;11.974;2024-03-23T10:59:57;3.13;;;1.10;;
9970;SDS011;5026;51.494;11.974;2024-03-23T11:02:24;2.33;;;0.90;;
9970;SDS011;5026;51.494;11.974;2024-03-23T11:04:52;5.43;;;1.30;;
9970;SDS011;5026;51.494;11.974;2024-03-23T11:07:29;4.60;;;1.40;;
9970;SDS011;5026;51.494;11.974;2024-03-23T11:09:56;7.73;;;1.70;;
9970;SDS011;5026;51.494;11.974;2024-03-23T11:12:27;10.07;;;1.83;;
9970;SDS011;5026;51.494;11.974;2024-03-23T11:14:59;5.20;;;1.50;;
9970;SDS011;5026;51.494;11.974;2024-03-23T11:17:28;6.33;;;1.70;;
9970;SDS011;5026;51.494;11.974;2024-03-23T11:19:54;3.93;;;2.17;;
9970;SDS011;5026;51.494;11.974;2024-03-23T11:22:38;4.80;;;1.80;;
9970;SDS011;5026;51.494;11.974;2024-03-23T11:25:12;4.67;;;1.43;;
9970;SDS011;5026;51.494;11.974;2024-03-23T11:27:44;3.07;;;1.67;;
9970;SDS011;5026;51.494;11.974;2024-03-23T11:30:11;5.43;;;1.37;;
9970;SDS011;5026;51.494;11.974;2024-03-23T11:32:39;2.47;;;1.50;;
9970;SDS011;5026;51.494;11.974;2024-03-23T11:35:05;5.30;;;1.40;;
9970;SDS011;5026;51.494;11.974;2024-03-23T11:37:35;6.63;;;1.00;;
9970;SDS011;5026;51.494;11.974;2024-03-23T11:40:14;4.00;;;1.20;;
9970;SDS011;5026;51.494;11.974;2024-03-23T11:42:44;2.70;;;1.10;;
9970;SDS011;5026;51.494;11.974;2024-03-23T11:45:11;4.63;;;1.30;;
9970;SDS011;5026;51.494;11.974;2024-03-23T11:47:39;3.67;;;1.00;;
9970;SDS011;5026;51.494;11.974;2024-03-23T11:50:05;1.23;;;0.67;;
9970;SDS011;5026;51.494;11.974;2024-03-23T11:52:32;2.23;;;1.03;;
9970;SDS011;5026;51.494;11.974;2024-03-23T11:55:03;2.07;;;1.00;;
9970;SDS011;5026;51.494;11.974;2024-03-23T11:57:32;7.20;;;1.20;;
9970;SDS011;5026;51.494;11.974;2024-03-23T12:00:00;2.50;;;0.97;;
9970;SDS011;5026;51.494;11.974;2024-03-23T12:02:27;3.80;;;1.20;;
9970;SDS011;5026;51.494;11.974;2024-03-23T12:04:53;3.20;;;1.30;;
9970;SDS011;5026;51.494;11.974;2024-03-23T12:07:20;1.50;;;1.00;;
9970;SDS011;5026;51.494;11.974;2024-03-23T12:09:47;6.73;;;1.10;;
9970;SDS011;5026;51.494;11.974;2024-03-23T12:12:29;5.60;;;1.40;;
9970;SDS011;5026;51.494;11.974;2024-03-23T12:15:03;1.80;;;1.20;;
9970;SDS011;5026;51.494;11.974;2024-03-23T12:17:31;2.47;;;1.40;;
9970;SDS011;5026;51.494;11.974;2024-03-23T12:19:57;2.60;;;1.40;;
9970;SDS011;5026;51.494;11.974;2024-03-23T12:22:24;5.47;;;1.30;;
9970;SDS011;5026;51.494;11.974;2024-03-23T12:24:50;3.40;;;1.50;;
9970;SDS011;5026;51.494;11.974;2024-03-23T12:27:18;3.17;;;1.90;;
9970;SDS011;5026;51.494;11.974;2024-03-23T12:29:44;5.97;;;1.70;;
9970;SDS011;5026;51.494;11.974;2024-03-23T12:32:13;2.47;;;1.77;;
9970;SDS011;5026;51.494;11.974;2024-03-23T12:34:39;7.70;;;2.10;;
9970;SDS011;5026;51.494;11.974;2024-03-23T12:37:07;5.90;;;2.30;;
9970;SDS011;5026;51.494;11.974;2024-03-23T12:39:34;5.40;;;2.40;;
9970;SDS011;5026;51.494;11.974;2024-03-23T12:42:02;5.63;;;2.47;;
9970;SDS011;5026;51.494;11.974;2024-03-23T12:44:28;7.13;;;2.87;;
9970;SDS011;5026;51.494;11.974;2024-03-23T12:46:55;4.00;;;2.07;;
9970;SDS011;5026;51.494;11.974;2024-03-23T12:49:22;4.13;;;2.20;;
9970;SDS011;5026;51.494;11.974;2024-03-23T12:51:53;6.50;;;2.23;;
9970;SDS011;5026;51.494;11.974;2024-03-23T12:54:19;7.43;;;2.47;;
9970;SDS011;5026;51.494;11.974;2024-03-23T12:56:46;4.27;;;2.13;;
9970;SDS011;5026;51.494;11.974;2024-03-23T12:59:12;5.23;;;2.43;;
9970;SDS011;5026;51.494;11.974;2024-03-23T13:01:39;6.80;;;2.50;;
9970;SDS011;5026;51.494;11.974;2024-03-23T13:04:05;8.10;;;2.53;;
9970;SDS011;5026;51.494;11.974;2024-03-23T13:06:33;7.47;;;2.73;;
9970;SDS011;5026;51.494;11.974;2024-03-23T13:08:59;6.63;;;2.57;;
9970;SDS011;5026;51.494;11.974;2024-03-23T13:11:26;6.23;;;2.10;;
9970;SDS011;5026;51.494;11.974;2024-03-23T13:13:52;6.47;;;2.27;;
9970;SDS011;5026;51.494;11.974;2024-03-23T13:16:19;8.07;;;2.43;;
9970;SDS011;5026;51.494;11.974;2024-03-23T13:18:45;6.20;;;2.73;;
9970;SDS011;5026;51.494;11.974;2024-03-23T13:21:12;5.03;;;2.50;;
9970;SDS011;5026;51.494;11.974;2024-03-23T13:23:39;7.78;;;3.10;;
9970;SDS011;5026;51.494;11.974;2024-03-23T13:26:07;9.50;;;2.97;;
9970;SDS011;5026;51.494;11.974;2024-03-23T13:28:33;4.85;;;2.20;;
9970;SDS011;5026;51.494;11.974;2024-03-23T13:31:01;6.60;;;2.83;;
9970;SDS011;5026;51.494;11.974;2024-03-23T13:33:28;9.45;;;2.90;;
9970;SDS011;5026;51.494;11.974;2024-03-23T13:35:57;6.90;;;2.38;;
9970;SDS011;5026;51.494;11.974;2024-03-23T13:38:23;8.30;;;3.00;;
9970;SDS011;5026;51.494;11.974;2024-03-23T13:40:53;4.57;;;2.75;;
9970;SDS011;5026;51.494;11.974;2024-03-23T13:43:19;6.70;;;3.05;;
9970;SDS011;5026;51.494;11.974;2024-03-23T13:45:46;5.97;;;2.85;;
9970;SDS011;5026;51.494;11.974;2024-03-23T13:48:13;7.55;;;3.88;;
9970;SDS011;5026;51.494;11.974;2024-03-23T13:50:40;6.07;;;3.30;;
9970;SDS011;5026;51.494;11.974;2024-03-23T13:53:07;6.70;;;3.58;;
9970;SDS011;5026;51.494;11.974;2024-03-23T13:55:34;2.40;;;2.00;;
9970;SDS011;5026;51.494;11.974;2024-03-23T13:58:02;3.50;;;1.40;;
9970;SDS011;5026;51.494;11.974;2024-03-23T14:00:29;3.67;;;1.53;;
9970;SDS011;5026;51.494;11.974;2024-03-23T14:02:56;2.03;;;1.30;;
9970;SDS011;5026;51.494;11.974;2024-03-23T14:05:23;3.47;;;3.00;;
9970;SDS011;5026;51.494;11.974;2024-03-23T14:07:50;2.27;;;1.83;;
9970;SDS011;5026;51.494;11.974;2024-03-23T14:10:17;3.73;;;1.83;;
9970;SDS011;5026;51.494;11.974;2024-03-23T14:12:42;2.43;;;1.60;;
9970;SDS011;5026;51.494;11.974;2024-03-23T14:15:11;1.97;;;1.40;;
9970;SDS011;5026;51.494;11.974;2024-03-23T14:17:37;2.70;;;1.53;;
9970;SDS011;5026;51.494;11.974;2024-03-23T14:20:04;3.80;;;1.80;;
9970;SDS011;5026;51.494;11.974;2024-03-23T14:22:30;2.87;;;1.70;;
9970;SDS011;5026;51.494;11.974;2024-03-23T14:24:58;2.73;;;1.90;;
9970;SDS011;5026;51.494;11.974;2024-03-23T14:27:23;2.10;;;1.90;;
9970;SDS011;5026;51.494;11.974;2024-03-23T14:29:51;4.77;;;2.17;;
9970;SDS011;5026;51.494;11.974;2024-03-23T14:32:18;4.20;;;1.97;;
9970;SDS011;5026;51.494;11.974;2024-03-23T14:34:45;2.67;;;1.43;;
9970;SDS011;5026;51.494;11.974;2024-03-23T14:37:11;2.50;;;1.80;;
9970;SDS011;5026;51.494;11.974;2024-03-23T14:39:40;2.17;;;2.03;;
9970;SDS011;5026;51.494;11.974;2024-03-23T14:42:06;5.20;;;2.50;;
9970;SDS011;5026;51.494;11.974;2024-03-23T14:44:34;6.37;;;2.73;;
9970;SDS011;5026;51.494;11.974;2024-03-23T14:47:00;3.53;;;2.40;;
9970;SDS011;5026;51.494;11.974;2024-03-23T14:49:28;4.07;;;2.43;;
9970;SDS011;5026;51.494;11.974;2024-03-23T14:51:54;5.00;;;2.77;;
9970;SDS011;5026;51.494;11.974;2024-03-23T14:54:21;2.90;;;2.60;;
9970;SDS011;5026;51.494;11.974;2024-03-23T14:56:47;4.93;;;2.77;;
9970;SDS011;5026;51.494;11.974;2024-03-23T14:59:14;7.03;;;2.67;;
9970;SDS011;5026;51.494;11.974;2024-03-23T15:01:40;3.80;;;2.77;;
9970;SDS011;5026;51.494;11.974;2024-03-23T15:04:07;4.67;;;3.10;;
9970;SDS011;5026;51.494;11.974;2024-03-23T15:06:34;5.80;;;2.77;;
9970;SDS011;5026;51.494;11.974;2024-03-23T15:09:01;4.93;;;2.47;;
9970;SDS011;5026;51.494;11.974;2024-03-23T15:11:32;3.63;;;2.70;;
9970;SDS011;5026;51.494;11.974;2024-03-23T15:13:59;3.00;;;2.70;;
9970;SDS011;5026;51.494;11.974;2024-03-23T15:16:24;3.80;;;3.00;;
9970;SDS011;5026;51.494;11.974;2024-03-23T15:18:51;2.90;;;2.40;;
9970;SDS011;5026;51.494;11.974;2024-03-23T15:21:17;5.60;;;2.77;;
9970;SDS011;5026;51.494;11.974;2024-03-23T15:23:47;3.23;;;2.77;;
9970;SDS011;5026;51.494;11.974;2024-03-23T15:26:13;4.50;;;2.87;;
9970;SDS011;5026;51.494;11.974;2024-03-23T15:28:41;5.33;;;3.00;;
9970;SDS011;5026;51.494;11.974;2024-03-23T15:31:18;4.93;;;2.83;;
9970;SDS011;5026;51.494;11.974;2024-03-23T15:33:45;4.80;;;2.80;;
9970;SDS011;5026;51.494;11.974;2024-03-23T15:36:11;3.97;;;2.97;;
9970;SDS011;5026;51.494;11.974;2024-03-23T15:38:38;6.00;;;3.47;;
9970;SDS011;5026;51.494;11.974;2024-03-23T15:41:05;8.47;;;3.03;;
9970;SDS011;5026;51.494;11.974;2024-03-23T15:43:32;6.30;;;3.43;;
9970;SDS011;5026;51.494;11.974;2024-03-23T15:45:59;4.30;;;3.27;;
9970;SDS011;5026;51.494;11.974;2024-03-23T15:48:27;5.53;;;2.90;;
9970;SDS011;5026;51.494;11.974;2024-03-23T15:50:53;3.03;;;2.40;;
9970;SDS011;5026;51.494;11.974;2024-03-23T15:53:21;6.33;;;2.97;;